Delta Virtual Airport Information Service

Fort Lauderdale Hollywood International Airport

ICAO: KFLL Country: United States
Latitude: 26.0726 Longitude: -80.1527
Latest Arrival : DAL1092 (A) (KJFK-KFLL) Latest Departure : JBU1002 (KFLL-KJFK)


WX CaptureLIVE
Data provided by noaa.gov | Fetched at 21:49:15

METAR : KFLL 240153Z 09013KT 10SM SCT028 27/23 A2994 RMK AO2 SLP139 T02720228 $

TAF : KFLL 232333Z 2400/2506 08012KT P6SM VCSH SCT025 BKN060 BKN250 FM240500 10008KT P6SM SCT035 BKN080 BKN250 FM241200 08010KT P6SM VCSH SCT025 BKN050 OVC250 FM241800 08012KT 6SM SHRA VCTS SCT025CB BKN050 OVC250


Runway Data for KFLL
Data provided by openaviationdata.com

Runway ID Mag Var Hdg Length Elevation Surface ILS Freq ILS Id ILS Slope
09L -5 95° 8994 ft 9 ft Asphalt 110.1 ILHI 3
09R -5 95° 5272 ft 9 ft Asphalt 108.5 IFLL 0
13 -5 140° 6938 ft 9 ft Asphalt 109.35 ILID 0
27L -5 275° 5272 ft 9 ft Asphalt -- -- --
27R -5 275° 8994 ft 9 ft Asphalt 110.7 IUDL 3
31 -5 320° 6938 ft 9 ft Asphalt -- -- --

Fort Lauderdale Hollywood International Airport, United States
Use only for reference purposes



Not for navigational purposes.